Time;durP1;ratioP1;P1;durP2;ratioP2;P2;SDS_P1;SDS_P2;PMS_P1;PMS_P2;Temp;Humidity;BMP_temperature;BMP_pressure;BME280_temperature;BME280_humidity;BME280_pressure;Samples;Min_cycle;Max_cycle;Signal;HPM_P1;HPM_P2
2022/06/28 00:00:22;;;;;;;6.53;2.67;;;23.80;68.20;;;;;;5022820;28;20052;-71
2022/06/28 00:02:48;;;;;;;3.47;2.20;;;23.70;68.50;;;;;;5020031;28;20064;-71
2022/06/28 00:05:16;;;;;;;4.13;2.38;;;23.70;69.30;;;;;;5023342;28;20507;-73
2022/06/28 00:07:42;;;;;;;2.85;2.15;;;23.70;69.10;;;;;;5020661;28;20109;-71
2022/06/28 00:10:10;;;;;;;5.63;2.10;;;23.60;68.70;;;;;;5022148;28;20542;-68
2022/06/28 00:12:37;;;;;;;2.67;2.15;;;23.50;68.50;;;;;;5021014;28;20113;-70
2022/06/28 00:17:49;;;;;;;3.90;1.88;;;23.50;69.80;;;;;;5021313;28;20435;-69
2022/06/28 00:20:15;;;;;;;1.88;1.60;;;23.40;69.80;;;;;;5020995;28;20052;-66
2022/06/28 00:22:41;;;;;;;2.05;1.60;;;23.30;69.70;;;;;;5021429;28;20021;-69
2022/06/28 00:25:07;;;;;;;4.55;1.70;;;23.20;69.70;;;;;;5023927;28;20378;-71
2022/06/28 00:27:33;;;;;;;2.22;1.63;;;23.10;69.80;;;;;;5028319;28;20096;-68
2022/06/28 00:29:59;;;;;;;2.08;1.50;;;23.10;70.00;;;;;;5026951;28;20125;-71
2022/06/28 00:32:25;;;;;;;1.63;1.40;;;23.10;70.10;;;;;;5025727;28;20437;-70
2022/06/28 00:34:51;;;;;;;2.03;1.42;;;23.10;70.20;;;;;;5026798;28;20029;-68
2022/06/28 00:37:16;;;;;;;4.20;1.95;;;23.10;69.90;;;;;;5030773;28;20017;-70
2022/06/28 00:39:42;;;;;;;2.97;1.67;;;23.10;69.80;;;;;;5026882;28;20018;-69
2022/06/28 00:42:09;;;;;;;7.88;3.33;;;23.10;69.70;;;;;;5028316;28;20081;-70
2022/06/28 00:44:37;;;;;;;2.35;1.70;;;23.10;69.80;;;;;;5028189;28;20042;-67
2022/06/28 00:47:03;;;;;;;2.30;1.52;;;23.00;69.90;;;;;;5025512;28;20030;-68
2022/06/28 00:49:30;;;;;;;1.90;1.20;;;23.10;70.20;;;;;;5030626;28;20021;-71
2022/06/28 00:51:58;;;;;;;3.38;1.58;;;23.10;70.30;;;;;;5029497;28;20034;-66
2022/06/28 00:54:25;;;;;;;2.28;1.50;;;23.10;70.30;;;;;;5026364;28;20041;-71
2022/06/28 00:56:51;;;;;;;3.67;1.80;;;23.20;70.70;;;;;;5028141;28;20026;-70
2022/06/28 00:59:17;;;;;;;4.00;1.98;;;23.20;70.60;;;;;;5028123;28;20072;-68
2022/06/28 01:01:44;;;;;;;7.03;1.85;;;23.20;70.30;;;;;;5028068;28;20439;-70
2022/06/28 01:04:10;;;;;;;3.60;1.65;;;23.20;70.00;;;;;;5027325;28;20048;-71
2022/06/28 01:06:39;;;;;;;3.50;1.85;;;23.20;70.20;;;;;;5028006;28;20065;-70
2022/06/28 01:09:05;;;;;;;1.60;1.50;;;23.20;69.80;;;;;;5028093;28;20030;-72
2022/06/28 01:11:32;;;;;;;3.88;2.05;;;23.20;69.90;;;;;;5026358;28;20377;-70
2022/06/28 01:14:00;;;;;;;1.55;1.45;;;23.20;70.20;;;;;;5027694;28;20414;-70
2022/06/28 01:16:27;;;;;;;3.42;1.83;;;23.20;70.20;;;;;;5028240;28;20029;-72
2022/06/28 01:18:53;;;;;;;2.90;1.73;;;23.20;70.20;;;;;;5026574;28;20041;-68
2022/06/28 01:21:20;;;;;;;3.10;2.10;;;23.20;69.80;;;;;;5027353;28;20021;-70
2022/06/28 01:23:47;;;;;;;4.63;1.60;;;23.20;69.50;;;;;;5028043;28;20026;-72
2022/06/28 01:26:15;;;;;;;2.95;2.03;;;23.10;69.20;;;;;;5026535;28;20367;-68
2022/06/28 01:28:42;;;;;;;7.05;2.92;;;23.20;69.60;;;;;;5027151;28;20027;-69
2022/06/28 01:31:08;;;;;;;6.50;2.40;;;23.10;69.40;;;;;;5026894;28;20021;-74
2022/06/28 01:33:38;;;;;;;2.20;1.80;;;23.10;69.00;;;;;;5026682;28;20014;-67
2022/06/28 01:36:05;;;;;;;3.95;2.38;;;23.10;69.10;;;;;;5025927;28;20010;-69
2022/06/28 01:38:32;;;;;;;2.53;2.33;;;23.20;69.40;;;;;;5024037;28;20013;-73
2022/06/28 01:40:59;;;;;;;4.25;2.40;;;23.20;69.60;;;;;;5023700;28;20017;-69
2022/06/28 01:43:26;;;;;;;4.28;1.83;;;23.20;69.40;;;;;;5023987;28;20018;-67
2022/06/28 01:45:53;;;;;;;2.25;1.83;;;23.10;68.40;;;;;;5025349;28;20029;-73
2022/06/28 01:48:20;;;;;;;1.95;1.55;;;23.20;68.40;;;;;;5024111;28;20079;-71
2022/06/28 01:50:52;;;;;;;2.38;1.35;;;23.10;68.60;;;;;;5025754;28;20033;-72
2022/06/28 01:53:17;;;;;;;2.38;1.35;;;23.10;68.10;;;;;;5023499;28;20022;-74
2022/06/28 01:55:43;;;;;;;1.50;1.35;;;23.20;68.50;;;;;;5023530;28;20037;-70
2022/06/28 01:58:09;;;;;;;2.45;1.80;;;23.20;68.70;;;;;;5024630;28;20544;-69
2022/06/28 02:00:36;;;;;;;2.80;1.20;;;23.20;68.50;;;;;;5023065;28;20030;-73
2022/06/28 02:03:03;;;;;;;3.80;1.40;;;23.20;68.50;;;;;;5023528;28;20067;-67
2022/06/28 02:05:30;;;;;;;3.95;1.40;;;23.30;68.50;;;;;;5024584;28;20032;-73
2022/06/28 02:07:56;;;;;;;2.33;1.55;;;23.30;68.00;;;;;;5024172;28;20040;-71
2022/06/28 02:10:23;;;;;;;3.20;1.67;;;23.30;68.30;;;;;;5023851;28;20014;-70
2022/06/28 02:12:49;;;;;;;4.95;1.88;;;23.30;68.10;;;;;;5022476;28;20076;-66
2022/06/28 02:15:16;;;;;;;2.50;1.40;;;23.30;68.00;;;;;;5025164;28;20431;-74
2022/06/28 02:17:43;;;;;;;3.28;1.55;;;23.40;67.90;;;;;;5023060;28;20061;-72
2022/06/28 02:20:10;;;;;;;1.73;1.38;;;23.40;68.20;;;;;;5024266;28;20026;-76
2022/06/28 02:22:35;;;;;;;1.85;1.42;;;23.40;68.20;;;;;;5022666;28;20804;-66
2022/06/28 02:25:01;;;;;;;2.38;1.52;;;23.40;67.60;;;;;;5023241;28;20048;-76
2022/06/28 02:27:27;;;;;;;1.55;1.45;;;23.40;67.50;;;;;;5021526;28;20079;-72
2022/06/28 02:29:53;;;;;;;3.13;1.65;;;23.40;67.70;;;;;;5022080;28;20022;-67
2022/06/28 02:32:19;;;;;;;6.85;1.40;;;23.40;67.80;;;;;;5023211;28;20018;-70
2022/06/28 02:40:22;;;;;;;;;;;23.40;67.40;;;;;;5022504;28;20538;-73
2022/06/28 02:42:49;;;;;;;;;;;23.40;66.70;;;;;;5022348;28;20000;-76
2022/06/28 02:45:14;;;;;;;4.15;1.60;;;23.40;66.30;;;;;;5047648;28;19913;-70
2022/06/28 02:47:40;;;;;;;3.05;1.98;;;23.40;66.90;;;;;;5022565;28;20099;-70
2022/06/28 02:50:07;;;;;;;2.00;1.48;;;23.30;66.80;;;;;;5021364;28;20026;-70
2022/06/28 02:52:32;;;;;;;5.40;2.15;;;23.30;66.90;;;;;;5022671;28;20049;-70
2022/06/28 02:54:58;;;;;;;3.03;2.00;;;23.20;66.90;;;;;;5020999;28;20081;-74
2022/06/28 02:57:24;;;;;;;8.05;4.75;;;23.20;66.70;;;;;;5023553;28;20036;-69
2022/06/28 02:59:50;;;;;;;2.17;1.90;;;23.10;66.90;;;;;;5022360;28;20431;-66
2022/06/28 03:02:15;;;;;;;2.20;1.77;;;23.00;66.90;;;;;;5021975;28;20025;-76
2022/06/28 03:04:41;;;;;;;3.25;2.15;;;23.00;66.80;;;;;;5023425;28;20112;-69
2022/06/28 03:07:07;;;;;;;3.45;2.05;;;22.90;67.00;;;;;;5020530;28;20496;-75
2022/06/28 03:09:33;;;;;;;2.55;1.92;;;22.90;67.20;;;;;;5022304;28;20035;-71
2022/06/28 03:11:59;;;;;;;3.03;2.00;;;22.80;67.20;;;;;;5023226;28;20500;-70
2022/06/28 03:14:24;;;;;;;3.22;1.88;;;22.80;67.60;;;;;;5021646;28;20018;-70
2022/06/28 03:16:50;;;;;;;2.70;2.08;;;22.80;67.70;;;;;;5021216;28;20497;-70
2022/06/28 03:19:16;;;;;;;2.88;1.92;;;22.70;67.80;;;;;;5022807;28;20014;-68
2022/06/28 03:21:43;;;;;;;4.10;2.08;;;22.70;67.60;;;;;;5021080;28;20092;-76
2022/06/28 03:24:09;;;;;;;3.65;1.98;;;22.70;67.50;;;;;;5023541;28;20021;-71
2022/06/28 03:26:35;;;;;;;9.88;2.47;;;22.60;67.50;;;;;;5021327;28;20735;-72
2022/06/28 03:29:01;;;;;;;3.38;2.10;;;22.60;67.40;;;;;;5019875;28;20026;-69
2022/06/28 03:31:27;;;;;;;3.72;2.30;;;22.60;67.50;;;;;;5021726;28;20025;-72
2022/06/28 03:33:52;;;;;;;3.55;2.50;;;22.60;67.90;;;;;;5022644;28;20156;-72
2022/06/28 03:36:18;;;;;;;2.50;2.30;;;22.50;67.90;;;;;;5023098;28;20100;-77
2022/06/28 03:38:44;;;;;;;2.95;2.30;;;22.50;68.20;;;;;;5022959;28;20013;-71
2022/06/28 03:41:10;;;;;;;2.58;2.35;;;22.50;68.20;;;;;;5021370;28;20022;-73
2022/06/28 03:43:35;;;;;;;3.40;2.00;;;22.50;68.40;;;;;;5021645;28;20021;-71
2022/06/28 03:46:01;;;;;;;2.40;2.20;;;22.50;68.40;;;;;;5022680;28;20053;-71
2022/06/28 03:48:27;;;;;;;2.67;1.83;;;22.50;68.50;;;;;;5021194;28;20459;-74
2022/06/28 03:50:53;;;;;;;2.60;2.40;;;22.50;68.70;;;;;;5021496;28;20021;-70
2022/06/28 03:53:18;;;;;;;2.75;2.30;;;22.50;68.80;;;;;;5021373;28;20026;-74
2022/06/28 03:55:44;;;;;;;5.30;2.50;;;22.50;68.90;;;;;;5022736;28;20601;-73
2022/06/28 03:58:10;;;;;;;2.35;2.15;;;22.50;69.10;;;;;;5021184;28;20097;-70
2022/06/28 04:00:36;;;;;;;4.22;2.47;;;22.50;69.20;;;;;;5018525;28;20519;-74
2022/06/28 04:03:02;;;;;;;6.20;2.55;;;22.50;69.40;;;;;;5021044;28;20014;-75
2022/06/28 04:05:29;;;;;;;7.22;3.17;;;22.50;69.30;;;;;;5022776;28;20481;-78
2022/06/28 04:07:54;;;;;;;4.63;2.72;;;22.50;69.60;;;;;;5021615;28;20054;-72
2022/06/28 04:10:20;;;;;;;3.63;2.33;;;22.60;69.70;;;;;;5021476;28;20101;-75
2022/06/28 04:12:46;;;;;;;3.65;2.33;;;22.60;69.70;;;;;;5023853;28;20083;-75
2022/06/28 04:15:12;;;;;;;4.75;2.83;;;22.70;69.90;;;;;;5023845;28;20103;-68
2022/06/28 04:17:38;;;;;;;4.90;3.08;;;22.70;69.80;;;;;;5023242;28;20022;-71
2022/06/28 04:20:04;;;;;;;2.58;2.30;;;22.80;69.80;;;;;;5020368;28;20014;-74
2022/06/28 04:22:30;;;;;;;4.10;2.20;;;22.80;69.80;;;;;;5021627;28;20049;-73
2022/06/28 04:24:56;;;;;;;4.82;2.50;;;22.90;69.60;;;;;;5022401;28;20543;-76
2022/06/28 04:27:22;;;;;;;5.07;2.60;;;22.90;69.40;;;;;;5022255;28;20025;-76
2022/06/28 04:29:47;;;;;;;4.60;2.88;;;23.00;69.50;;;;;;5020488;28;20105;-72
2022/06/28 04:32:13;;;;;;;7.80;2.70;;;23.00;69.00;;;;;;5021296;28;20116;-74
2022/06/28 04:34:39;;;;;;;3.17;2.67;;;23.10;68.60;;;;;;5022258;28;20030;-75
2022/06/28 04:37:05;;;;;;;12.43;3.33;;;23.10;68.40;;;;;;5022729;28;20464;-74
2022/06/28 04:39:30;;;;;;;3.33;2.70;;;23.20;68.40;;;;;;5021711;28;20025;-77
2022/06/28 04:41:56;;;;;;;5.53;2.80;;;23.20;68.10;;;;;;5022854;28;20048;-78
2022/06/28 04:44:22;;;;;;;7.55;2.80;;;23.30;68.00;;;;;;5020646;28;20104;-81
2022/06/28 04:46:48;;;;;;;4.88;3.08;;;23.30;68.40;;;;;;5021976;28;20475;-73
2022/06/28 04:49:14;;;;;;;6.68;2.83;;;23.30;68.10;;;;;;5020333;28;20022;-75
2022/06/28 04:51:39;;;;;;;9.55;3.05;;;23.40;68.30;;;;;;5020098;28;20213;-74
2022/06/28 04:54:05;;;;;;;5.88;3.20;;;23.50;68.10;;;;;;5018970;28;20018;-73
2022/06/28 04:56:31;;;;;;;4.90;3.63;;;23.50;67.80;;;;;;5023017;28;20026;-74
2022/06/28 04:58:57;;;;;;;4.88;3.25;;;23.60;66.90;;;;;;5020680;28;20057;-76
2022/06/28 05:01:22;;;;;;;10.07;3.63;;;23.60;66.70;;;;;;5022425;28;20021;-78
2022/06/28 05:03:48;;;;;;;6.80;3.85;;;23.60;66.70;;;;;;5023074;28;20025;-74
2022/06/28 05:06:14;;;;;;;10.18;3.72;;;23.60;66.00;;;;;;5021981;28;20475;-74
2022/06/28 05:08:40;;;;;;;4.78;3.53;;;23.70;66.00;;;;;;5020780;28;20396;-76
2022/06/28 05:11:07;;;;;;;5.13;4.10;;;23.70;66.60;;;;;;5022349;28;20407;-83
2022/06/28 05:13:34;;;;;;;5.03;3.65;;;23.80;66.20;;;;;;5024823;28;20375;-81
2022/06/28 05:15:59;;;;;;;4.50;3.60;;;23.80;66.70;;;;;;5024638;28;20048;-69
2022/06/28 05:18:25;;;;;;;5.88;3.90;;;23.90;66.60;;;;;;5030117;28;20535;-75
2022/06/28 05:20:51;;;;;;;3.35;2.88;;;23.90;66.50;;;;;;5031534;28;20025;-73
2022/06/28 05:23:17;;;;;;;7.20;3.70;;;24.00;66.30;;;;;;5029525;28;20029;-72
2022/06/28 05:25:43;;;;;;;4.40;3.70;;;24.10;66.20;;;;;;5024702;28;20024;-78
2022/06/28 05:28:09;;;;;;;4.95;3.05;;;24.10;65.90;;;;;;5025538;28;20021;-80
2022/06/28 05:30:34;;;;;;;5.63;3.38;;;24.20;65.10;;;;;;5027107;28;20192;-83
2022/06/28 05:33:03;;;;;;;3.83;3.03;;;24.30;65.20;;;;;;5030337;28;20028;-81
2022/06/28 05:35:28;;;;;;;8.23;3.35;;;24.30;64.90;;;;;;5025953;28;20066;-75
2022/06/28 05:37:54;;;;;;;4.88;3.10;;;24.40;64.50;;;;;;5028143;28;20030;-78
2022/06/28 05:40:20;;;;;;;5.15;3.28;;;24.50;64.00;;;;;;5025077;28;20018;-77
2022/06/28 05:42:47;;;;;;;3.35;2.65;;;24.50;63.40;;;;;;5026596;28;20033;-72
2022/06/28 05:45:12;;;;;;;3.83;3.08;;;24.50;64.20;;;;;;5024126;28;20458;-78
2022/06/28 05:47:38;;;;;;;3.72;2.53;;;24.60;63.70;;;;;;5027008;28;20699;-71
2022/06/28 05:50:05;;;;;;;4.88;2.47;;;24.60;63.40;;;;;;5026071;28;20594;-77
2022/06/28 05:52:30;;;;;;;3.47;2.42;;;24.60;62.90;;;;;;5027851;28;20026;-78
2022/06/28 05:54:56;;;;;;;8.88;2.90;;;24.60;62.20;;;;;;5027228;28;20029;-75
2022/06/28 05:57:22;;;;;;;5.25;2.72;;;24.50;62.00;;;;;;5038378;28;20091;-78
2022/06/28 05:59:48;;;;;;;5.03;2.45;;;24.50;62.30;;;;;;5040885;28;20049;-78
2022/06/28 06:02:13;;;;;;;4.65;2.67;;;24.40;62.30;;;;;;5049741;28;20441;-81
2022/06/28 06:04:39;;;;;;;3.60;2.35;;;24.30;61.90;;;;;;5057802;28;20150;-80
2022/06/28 06:07:05;;;;;;;6.97;2.85;;;24.30;61.70;;;;;;5035131;28;20053;-85
2022/06/28 06:09:31;;;;;;;4.57;2.72;;;24.30;62.10;;;;;;5035509;28;20044;-72
2022/06/28 06:11:57;;;;;;;3.40;2.58;;;24.20;62.10;;;;;;5037391;28;20036;-77
2022/06/28 06:14:22;;;;;;;3.90;2.40;;;24.20;62.70;;;;;;5032536;28;20044;-79
2022/06/28 06:16:50;;;;;;;2.78;2.47;;;24.20;62.70;;;;;;5033501;28;20064;-80
2022/06/28 06:19:17;;;;;;;3.22;2.30;;;24.20;63.70;;;;;;5035358;28;20021;-79
2022/06/28 06:21:43;;;;;;;3.38;2.22;;;24.30;62.90;;;;;;5037377;28;20029;-86
2022/06/28 06:24:09;;;;;;;5.45;2.40;;;24.30;63.90;;;;;;5035846;28;20022;-82
2022/06/28 06:26:35;;;;;;;4.00;2.72;;;24.40;64.50;;;;;;5038574;28;20021;-71
2022/06/28 06:29:01;;;;;;;5.97;2.42;;;24.40;64.70;;;;;;5041118;28;20056;-82
2022/06/28 06:31:27;;;;;;;4.65;2.30;;;24.50;64.30;;;;;;5043371;28;20409;-72
2022/06/28 06:33:53;;;;;;;5.20;2.33;;;24.70;64.10;;;;;;5042521;28;20025;-70
2022/06/28 06:36:19;;;;;;;5.72;2.50;;;24.70;60.10;;;;;;5041299;28;20528;-71
2022/06/28 06:38:46;;;;;;;3.25;1.92;;;24.80;60.80;;;;;;5041506;28;20483;-75
2022/06/28 06:41:11;;;;;;;4.55;2.00;;;24.80;60.30;;;;;;5037542;28;20419;-86
2022/06/28 06:43:37;;;;;;;5.03;2.22;;;24.80;59.90;;;;;;5038460;28;20021;-82
2022/06/28 06:46:03;;;;;;;9.18;1.92;;;24.80;60.10;;;;;;5035723;28;20041;-73
2022/06/28 06:48:29;;;;;;;2.80;1.85;;;24.80;60.10;;;;;;5037809;28;20022;-75
2022/06/28 06:50:54;;;;;;;3.00;1.95;;;24.90;61.70;;;;;;5037511;28;20032;-77
2022/06/28 06:53:20;;;;;;;3.00;2.08;;;24.90;60.00;;;;;;5036904;28;20101;-70
2022/06/28 06:55:47;;;;;;;3.80;2.20;;;24.90;60.00;;;;;;5035406;28;20025;-73
2022/06/28 06:58:14;;;;;;;3.33;2.33;;;25.00;59.10;;;;;;5035241;28;20021;-85
2022/06/28 07:00:40;;;;;;;4.50;2.30;;;25.00;58.70;;;;;;5034987;28;20033;-77
2022/06/28 07:03:06;;;;;;;4.28;2.20;;;25.20;60.10;;;;;;5035186;28;20025;-79
2022/06/28 07:05:32;;;;;;;4.95;2.58;;;25.20;59.80;;;;;;5034622;28;20037;-79
2022/06/28 07:07:58;;;;;;;6.60;2.40;;;25.30;58.80;;;;;;5035294;28;20022;-78
2022/06/28 07:10:24;;;;;;;3.22;2.15;;;25.40;58.10;;;;;;5054100;28;20025;-77
2022/06/28 07:12:50;;;;;;;2.42;1.85;;;25.40;58.40;;;;;;5054392;28;20166;-77
2022/06/28 07:15:16;;;;;;;2.72;1.65;;;25.50;58.30;;;;;;5038245;28;20029;-75
2022/06/28 07:17:41;;;;;;;4.72;2.03;;;25.60;57.30;;;;;;5033897;28;20040;-76
2022/06/28 07:20:08;;;;;;;3.55;2.45;;;25.60;55.90;;;;;;5033776;28;20101;-78
2022/06/28 07:22:33;;;;;;;4.10;2.30;;;25.60;55.90;;;;;;5033723;28;20022;-75
2022/06/28 07:25:00;;;;;;;4.25;2.17;;;25.70;56.50;;;;;;5033681;28;20025;-77
2022/06/28 07:27:27;;;;;;;3.28;2.60;;;25.80;57.50;;;;;;5033690;28;20025;-78
2022/06/28 07:29:53;;;;;;;2.85;2.00;;;25.90;57.30;;;;;;5033764;28;20534;-76
2022/06/28 07:32:19;;;;;;;11.32;2.50;;;26.00;56.80;;;;;;5033620;28;20062;-75
2022/06/28 07:34:46;;;;;;;2.78;2.50;;;26.20;57.20;;;;;;5028894;28;20030;-79
2022/06/28 07:37:12;;;;;;;4.95;2.53;;;26.30;56.50;;;;;;5012496;28;20038;-74
2022/06/28 07:39:38;;;;;;;3.38;2.53;;;26.50;55.50;;;;;;5031105;28;20021;-71
2022/06/28 07:42:04;;;;;;;3.65;2.33;;;26.60;56.50;;;;;;5032219;28;20021;-74
2022/06/28 07:44:31;;;;;;;3.33;2.20;;;26.70;55.60;;;;;;5033201;28;20041;-73
2022/06/28 07:46:56;;;;;;;3.08;2.42;;;26.90;54.70;;;;;;5032056;28;20451;-76
2022/06/28 07:49:22;;;;;;;4.68;2.60;;;27.00;53.80;;;;;;5033246;28;20029;-74
2022/06/28 07:54:32;;;;;;;6.72;2.40;;;27.00;54.30;;;;;;5033607;28;20434;-74
2022/06/28 07:56:58;;;;;;;5.13;2.50;;;27.00;53.40;;;;;;5033113;28;20025;-76
2022/06/28 07:59:24;;;;;;;3.30;2.45;;;27.00;52.10;;;;;;5033225;28;20497;-74
2022/06/28 08:01:50;;;;;;;8.07;2.40;;;26.90;52.10;;;;;;5031815;28;20025;-74
2022/06/28 08:04:16;;;;;;;2.58;2.38;;;26.90;53.40;;;;;;5031680;28;20070;-76
2022/06/28 08:06:43;;;;;;;18.88;3.50;;;27.00;54.40;;;;;;5033170;28;20429;-75
2022/06/28 08:09:09;;;;;;;15.55;4.20;;;27.20;53.00;;;;;;5033143;28;20029;-75
2022/06/28 08:11:34;;;;;;;5.50;2.95;;;27.30;52.00;;;;;;5033069;28;20147;-75
2022/06/28 08:14:00;;;;;;;4.00;2.35;;;27.40;52.20;;;;;;5033060;28;20025;-75
2022/06/28 08:16:26;;;;;;;4.22;2.88;;;27.40;51.90;;;;;;5032472;28;20033;-75
2022/06/28 08:18:52;;;;;;;3.53;2.30;;;27.40;51.10;;;;;;5033004;28;20029;-75
2022/06/28 08:21:18;;;;;;;2.78;2.50;;;27.40;51.50;;;;;;5032932;28;20144;-76
2022/06/28 08:23:45;;;;;;;3.50;2.42;;;27.30;51.00;;;;;;5028145;28;20120;-75
2022/06/28 08:26:11;;;;;;;3.30;2.42;;;27.10;50.50;;;;;;5013504;28;20034;-76
2022/06/28 08:28:37;;;;;;;4.70;2.88;;;27.00;51.20;;;;;;5031572;28;20033;-75
2022/06/28 08:31:03;;;;;;;3.95;2.60;;;27.00;53.10;;;;;;5032740;28;20029;-75
2022/06/28 08:33:29;;;;;;;3.65;2.35;;;27.00;52.10;;;;;;5032878;28;20021;-75
2022/06/28 08:35:55;;;;;;;2.53;2.33;;;27.00;52.50;;;;;;5032766;28;20108;-75
2022/06/28 08:38:21;;;;;;;4.75;2.60;;;27.00;51.30;;;;;;5032729;28;20125;-75
2022/06/28 08:40:47;;;;;;;6.18;2.25;;;27.10;53.70;;;;;;5032125;28;20033;-75
2022/06/28 08:43:13;;;;;;;3.45;2.10;;;27.10;52.90;;;;;;5032740;28;20422;-75
2022/06/28 08:45:39;;;;;;;2.55;2.25;;;27.20;51.60;;;;;;5032861;28;20095;-76
2022/06/28 08:48:17;;;;;;;3.67;2.08;;;27.40;53.10;;;;;;5035635;28;20047;-76
2022/06/28 08:50:46;;;;;;;2.35;2.15;;;27.50;53.10;;;;;;5035394;28;20034;-78
2022/06/28 08:53:12;;;;;;;4.05;2.13;;;27.70;52.70;;;;;;5035353;28;20032;-75
2022/06/28 08:55:38;;;;;;;4.07;2.20;;;27.80;51.70;;;;;;5035275;28;20442;-73
2022/06/28 08:58:07;;;;;;;4.78;2.22;;;28.00;52.90;;;;;;5036500;28;20026;-71
2022/06/28 09:00:34;;;;;;;3.90;2.30;;;28.10;51.30;;;;;;5036543;28;20036;-71
2022/06/28 09:03:00;;;;;;;2.42;2.00;;;28.30;49.90;;;;;;5036466;28;20139;-72
2022/06/28 09:05:28;;;;;;;2.20;2.00;;;28.50;50.50;;;;;;5036313;28;20040;-71
2022/06/28 09:07:54;;;;;;;5.72;2.20;;;28.60;49.80;;;;;;5036445;28;20026;-71
2022/06/28 09:10:20;;;;;;;4.05;2.50;;;28.80;51.90;;;;;;5036293;28;20025;-71
2022/06/28 09:12:56;;;;;;;7.78;2.75;;;28.90;48.60;;;;;;5036217;28;20029;-70
2022/06/28 09:15:25;;;;;;;7.57;2.83;;;29.00;51.30;;;;;;5036211;28;20499;-70
2022/06/28 09:17:56;;;;;;;4.78;2.28;;;29.10;49.20;;;;;;5036052;28;20029;-69
2022/06/28 09:20:37;;;;;;;2.83;1.88;;;29.10;48.60;;;;;;5035931;28;20383;-69
2022/06/28 09:23:03;;;;;;;2.47;2.00;;;29.10;48.50;;;;;;5036074;28;20024;-68
2022/06/28 09:25:31;;;;;;;2.45;2.22;;;29.10;48.80;;;;;;5036088;28;20030;-68
2022/06/28 09:28:00;;;;;;;2.53;2.08;;;29.00;49.20;;;;;;5036040;28;20118;-70
2022/06/28 09:30:31;;;;;;;8.48;3.25;;;29.00;49.20;;;;;;5035894;28;20021;-69
2022/06/28 09:32:57;;;;;;;3.65;2.20;;;29.00;50.00;;;;;;5035967;28;20092;-68
2022/06/28 09:35:26;;;;;;;3.08;2.05;;;28.90;48.70;;;;;;5034405;28;20036;-68
2022/06/28 09:37:53;;;;;;;2.28;2.08;;;28.90;49.40;;;;;;5035732;28;20029;-68
2022/06/28 09:40:20;;;;;;;5.43;2.40;;;28.90;48.60;;;;;;5035750;28;20022;-68
2022/06/28 09:43:12;;;;;;;3.65;2.30;;;29.00;48.50;;;;;;5035719;28;20545;-67
2022/06/28 09:45:40;;;;;;;11.40;2.42;;;29.10;48.30;;;;;;5034189;28;20050;-67
2022/06/28 09:48:07;;;;;;;2.55;2.28;;;29.20;47.40;;;;;;5035618;28;20025;-67
2022/06/28 09:50:36;;;;;;;3.13;2.17;;;29.30;47.70;;;;;;5035715;28;20467;-68
2022/06/28 09:53:04;;;;;;;7.13;2.50;;;29.40;49.10;;;;;;5035587;28;20108;-68
2022/06/28 09:55:31;;;;;;;3.05;2.40;;;29.50;49.90;;;;;;5035539;28;20024;-67
2022/06/28 09:57:58;;;;;;;7.35;2.60;;;29.60;47.10;;;;;;5034166;28;20441;-68
2022/06/28 10:00:25;;;;;;;4.40;2.08;;;29.70;47.60;;;;;;5035380;28;20025;-68
2022/06/28 10:02:55;;;;;;;2.60;2.20;;;29.70;47.80;;;;;;5035399;28;20045;-67
2022/06/28 10:05:21;;;;;;;2.35;1.65;;;29.70;48.50;;;;;;5035261;28;20029;-67
2022/06/28 10:07:47;;;;;;;2.20;2.00;;;29.80;48.10;;;;;;5035272;28;20049;-67
2022/06/28 10:10:14;;;;;;;2.83;2.10;;;29.80;47.10;;;;;;5035252;28;20048;-67
2022/06/28 10:15:58;;;;;;;5.75;2.38;;;29.90;46.70;;;;;;5034928;28;20079;-66
2022/06/28 10:18:26;;;;;;;3.03;2.10;;;29.90;46.50;;;;;;5012039;28;20091;-68
2022/06/28 10:20:52;;;;;;;6.05;2.45;;;29.90;46.30;;;;;;5035030;28;20463;-69
2022/06/28 10:23:37;;;;;;;2.70;2.30;;;29.80;46.40;;;;;;5034940;28;20076;-68
2022/06/28 10:26:15;;;;;;;2.85;2.03;;;29.80;46.80;;;;;;5034956;28;20036;-69
2022/06/28 10:28:45;;;;;;;3.25;2.50;;;29.80;47.70;;;;;;5035008;28;20053;-68
2022/06/28 10:31:23;;;;;;;3.30;2.15;;;29.80;45.70;;;;;;5033516;28;20422;-69
2022/06/28 10:33:50;;;;;;;2.83;2.17;;;29.80;47.00;;;;;;5034496;28;20033;-68
2022/06/28 10:36:18;;;;;;;3.80;2.40;;;29.80;46.00;;;;;;5034767;28;20022;-68
2022/06/28 10:39:08;;;;;;;5.05;2.30;;;29.70;47.00;;;;;;5033330;28;20026;-68
2022/06/28 10:41:46;;;;;;;3.65;2.50;;;29.60;46.60;;;;;;5033290;28;20033;-68
2022/06/28 10:44:27;;;;;;;4.18;3.13;;;29.60;47.00;;;;;;5034424;28;20104;-67
2022/06/28 10:47:05;;;;;;;4.50;3.08;;;29.60;47.30;;;;;;5033269;28;20079;-68
2022/06/28 10:49:46;;;;;;;4.60;3.10;;;29.70;49.20;;;;;;5034557;28;20029;-69
2022/06/28 10:52:23;;;;;;;4.38;3.03;;;29.90;47.70;;;;;;5034453;28;20033;-69
2022/06/28 10:54:51;;;;;;;6.90;2.90;;;30.20;47.30;;;;;;5034466;28;20029;-69
2022/06/28 10:57:23;;;;;;;4.05;2.70;;;30.50;47.70;;;;;;5033095;28;20034;-69
2022/06/28 10:59:52;;;;;;;3.58;2.33;;;30.70;47.70;;;;;;5034325;28;20022;-69
2022/06/28 11:02:19;;;;;;;4.55;2.30;;;30.90;47.40;;;;;;5033442;28;20058;-68
2022/06/28 11:04:46;;;;;;;4.90;2.63;;;31.10;47.50;;;;;;5034069;28;20048;-68
2022/06/28 11:07:25;;;;;;;3.47;2.50;;;31.30;47.30;;;;;;5033799;28;20029;-67
2022/06/28 11:10:05;;;;;;;5.80;2.78;;;31.60;46.30;;;;;;5033688;28;20052;-68
2022/06/28 11:12:35;;;;;;;4.78;2.38;;;31.80;46.80;;;;;;5034076;28;20059;-68
2022/06/28 11:15:04;;;;;;;3.85;2.88;;;32.10;45.00;;;;;;5033910;28;20030;-68
2022/06/28 11:17:41;;;;;;;4.68;2.47;;;32.40;44.30;;;;;;5033886;28;20026;-68
2022/06/28 11:20:09;;;;;;;3.83;2.72;;;32.60;45.70;;;;;;5033932;28;20041;-65
2022/06/28 11:22:43;;;;;;;6.07;3.20;;;32.90;44.40;;;;;;5033808;28;20093;-65
2022/06/28 11:25:12;;;;;;;5.63;2.60;;;33.10;43.50;;;;;;5033655;28;20029;-66
2022/06/28 11:27:51;;;;;;;3.35;2.55;;;33.20;43.00;;;;;;5033585;28;20034;-66
2022/06/28 11:30:18;;;;;;;4.47;2.58;;;33.30;43.10;;;;;;5033538;28;20539;-66
2022/06/28 11:32:48;;;;;;;6.70;2.92;;;33.40;42.40;;;;;;5033313;28;20040;-68
2022/06/28 11:35:23;;;;;;;4.85;2.10;;;33.40;41.70;;;;;;5033414;28;20108;-69
2022/06/28 11:37:55;;;;;;;7.25;2.72;;;33.50;41.40;;;;;;5032163;28;20029;-67
2022/06/28 11:40:21;;;;;;;2.75;2.25;;;33.60;40.30;;;;;;5033463;28;20486;-65
2022/06/28 11:42:59;;;;;;;3.90;2.00;;;33.70;40.70;;;;;;5033454;28;20033;-65
2022/06/28 11:45:29;;;;;;;5.20;2.60;;;33.70;40.20;;;;;;5031982;28;20046;-68
2022/06/28 11:47:55;;;;;;;3.92;2.58;;;33.60;39.80;;;;;;5033335;28;20396;-68
2022/06/28 11:50:21;;;;;;;3.85;2.30;;;33.50;40.00;;;;;;5033272;28;20045;-66
2022/06/28 11:52:54;;;;;;;6.65;2.60;;;33.40;39.20;;;;;;5033270;28;20422;-68
2022/06/28 11:55:59;;;;;;;2.95;2.10;;;33.30;39.60;;;;;;5033374;28;20037;-66
2022/06/28 11:58:26;;;;;;;3.67;2.10;;;33.10;39.60;;;;;;5027509;28;20481;-69
2022/06/28 12:01:11;;;;;;;3.55;2.20;;;33.00;39.70;;;;;;5031755;28;20468;-66
2022/06/28 12:03:43;;;;;;;7.50;2.00;;;32.90;39.00;;;;;;5033099;28;20017;-66
2022/06/28 12:06:28;;;;;;;3.63;1.92;;;32.80;39.50;;;;;;5031704;28;20033;-65
2022/06/28 12:09:24;;;;;;;3.10;1.67;;;32.60;39.50;;;;;;5033124;28;20093;-67
2022/06/28 12:11:52;;;;;;;3.20;1.92;;;32.50;39.40;;;;;;5030846;28;20068;-65
2022/06/28 12:14:19;;;;;;;3.15;2.20;;;32.50;39.60;;;;;;5032970;28;20498;-66
2022/06/28 12:16:50;;;;;;;3.05;2.03;;;32.40;39.70;;;;;;5032856;28;20052;-66
2022/06/28 12:19:26;;;;;;;3.03;1.92;;;32.40;40.00;;;;;;5032909;28;20356;-66
2022/06/28 12:22:08;;;;;;;3.13;2.00;;;32.40;39.90;;;;;;5031983;28;20556;-67
2022/06/28 12:24:47;;;;;;;3.50;1.85;;;32.40;40.00;;;;;;5032721;28;20029;-69
2022/06/28 12:27:36;;;;;;;3.58;2.00;;;32.50;39.70;;;;;;5032834;28;20029;-67
2022/06/28 12:30:04;;;;;;;4.68;1.90;;;32.50;39.10;;;;;;5032816;28;20065;-66
2022/06/28 12:32:30;;;;;;;1.45;1.35;;;32.60;39.00;;;;;;5032768;28;20025;-68
2022/06/28 12:35:07;;;;;;;2.67;1.63;;;32.70;39.60;;;;;;5032693;28;20025;-68
2022/06/28 12:37:34;;;;;;;2.20;1.50;;;32.80;39.10;;;;;;5032741;28;20025;-69
2022/06/28 12:40:00;;;;;;;4.40;1.83;;;32.80;38.60;;;;;;5032801;28;20021;-69
2022/06/28 12:42:27;;;;;;;1.95;1.63;;;33.00;39.20;;;;;;5031379;28;20037;-69
2022/06/28 12:44:54;;;;;;;7.72;2.40;;;33.00;39.00;;;;;;5032559;28;20124;-67
2022/06/28 12:47:20;;;;;;;4.13;1.77;;;33.20;38.40;;;;;;5032684;28;20033;-69
2022/06/28 12:49:45;;;;;;;3.90;1.90;;;33.30;38.40;;;;;;5032489;28;20037;-70
2022/06/28 12:52:12;;;;;;;12.27;1.48;;;33.50;37.70;;;;;;5032625;28;20084;-66
2022/06/28 12:54:39;;;;;;;2.85;1.60;;;33.60;37.80;;;;;;5031109;28;20025;-69
2022/06/28 12:57:05;;;;;;;2.58;1.70;;;33.80;37.10;;;;;;5032494;28;20104;-68
2022/06/28 12:59:31;;;;;;;2.45;1.20;;;33.90;37.40;;;;;;5032576;28;20049;-69
2022/06/28 13:01:58;;;;;;;4.60;1.27;;;34.00;37.00;;;;;;5032541;28;20022;-66
2022/06/28 13:04:24;;;;;;;2.85;1.60;;;34.10;37.10;;;;;;5032506;28;20152;-66